sensor_id;sensor_type;location;lat;lon;timestamp;pressure;altitude;pressure_sealevel;temperature;humidity
38812;BME280;24553;51.640;-0.752;2022-10-16T00:01:35;99801.88;;;9.91;100.00
38812;BME280;24553;51.640;-0.752;2022-10-16T00:04:01;99794.16;;;9.89;100.00
38812;BME280;24553;51.640;-0.752;2022-10-16T00:06:27;99800.03;;;9.85;100.00
38812;BME280;24553;51.640;-0.752;2022-10-16T00:08:53;99796.38;;;9.86;100.00
38812;BME280;24553;51.640;-0.752;2022-10-16T00:11:25;99801.44;;;9.80;100.00
38812;BME280;24553;51.640;-0.752;2022-10-16T00:13:54;99792.50;;;9.88;100.00
38812;BME280;24553;51.640;-0.752;2022-10-16T00:16:20;99796.78;;;9.82;100.00
38812;BME280;24553;51.640;-0.752;2022-10-16T00:18:45;99797.41;;;9.85;100.00
38812;BME280;24553;51.640;-0.752;2022-10-16T00:21:22;99793.75;;;9.92;100.00
38812;BME280;24553;51.640;-0.752;2022-10-16T00:23:53;99801.28;;;9.95;100.00
38812;BME280;24553;51.640;-0.752;2022-10-16T00:26:19;99801.06;;;9.90;100.00
38812;BME280;24553;51.640;-0.752;2022-10-16T00:28:49;99809.22;;;9.95;100.00
38812;BME280;24553;51.640;-0.752;2022-10-16T00:31:15;99801.66;;;9.99;100.00
38812;BME280;24553;51.640;-0.752;2022-10-16T00:33:42;99800.25;;;9.96;100.00
38812;BME280;24553;51.640;-0.752;2022-10-16T00:36:11;99806.56;;;9.89;100.00
38812;BME280;24553;51.640;-0.752;2022-10-16T00:38:38;99806.16;;;9.85;100.00
38812;BME280;24553;51.640;-0.752;2022-10-16T00:41:05;99797.59;;;9.83;100.00
38812;BME280;24553;51.640;-0.752;2022-10-16T00:43:41;99800.22;;;9.83;100.00
38812;BME280;24553;51.640;-0.752;2022-10-16T00:48:37;99811.66;;;9.90;100.00
38812;BME280;24553;51.640;-0.752;2022-10-16T00:51:04;99816.53;;;9.93;100.00
38812;BME280;24553;51.640;-0.752;2022-10-16T00:53:31;99816.13;;;9.90;100.00
38812;BME280;24553;51.640;-0.752;2022-10-16T00:55:57;99811.66;;;9.83;100.00
38812;BME280;24553;51.640;-0.752;2022-10-16T00:58:22;99812.47;;;9.91;100.00
38812;BME280;24553;51.640;-0.752;2022-10-16T01:00:48;99819.19;;;9.93;100.00
38812;BME280;24553;51.640;-0.752;2022-10-16T01:03:46;99824.06;;;9.96;100.00
38812;BME280;24553;51.640;-0.752;2022-10-16T01:11:34;99824.28;;;9.95;100.00
38812;BME280;24553;51.640;-0.752;2022-10-16T01:14:10;99825.91;;;9.96;100.00
38812;BME280;24553;51.640;-0.752;2022-10-16T01:16:55;99830.41;;;9.95;100.00
38812;BME280;24553;51.640;-0.752;2022-10-16T01:19:41;99825.13;;;10.02;100.00
38812;BME280;24553;51.640;-0.752;2022-10-16T01:22:09;99810.44;;;9.93;100.00
38812;BME280;24553;51.640;-0.752;2022-10-16T01:24:40;99801.66;;;9.86;100.00
38812;BME280;24553;51.640;-0.752;2022-10-16T01:32:19;99822.47;;;10.02;100.00
38812;BME280;24553;51.640;-0.752;2022-10-16T01:37:50;99828.19;;;10.12;100.00
38812;BME280;24553;51.640;-0.752;2022-10-16T01:40:19;99831.63;;;10.13;100.00
38812;BME280;24553;51.640;-0.752;2022-10-16T01:42:49;99827.16;;;10.13;100.00
38812;BME280;24553;51.640;-0.752;2022-10-16T01:45:19;99831.03;;;10.11;100.00
38812;BME280;24553;51.640;-0.752;2022-10-16T01:47:46;99836.72;;;10.01;100.00
38812;BME280;24553;51.640;-0.752;2022-10-16T01:50:14;99834.69;;;10.03;100.00
38812;BME280;24553;51.640;-0.752;2022-10-16T01:52:44;99845.06;;;9.98;100.00
38812;BME280;24553;51.640;-0.752;2022-10-16T01:55:13;99850.34;;;9.85;100.00
38812;BME280;24553;51.640;-0.752;2022-10-16T01:57:42;99849.09;;;9.80;100.00
38812;BME280;24553;51.640;-0.752;2022-10-16T02:00:12;99849.94;;;9.81;100.00
38812;BME280;24553;51.640;-0.752;2022-10-16T02:02:45;99837.31;;;9.76;100.00
38812;BME280;24553;51.640;-0.752;2022-10-16T02:05:32;99838.50;;;9.67;100.00
38812;BME280;24553;51.640;-0.752;2022-10-16T02:07:59;99848.25;;;9.53;100.00
38812;BME280;24553;51.640;-0.752;2022-10-16T02:10:24;99853.31;;;9.48;100.00
38812;BME280;24553;51.640;-0.752;2022-10-16T02:12:56;99850.28;;;9.51;100.00
38812;BME280;24553;51.640;-0.752;2022-10-16T02:15:23;99852.88;;;9.45;100.00
38812;BME280;24553;51.640;-0.752;2022-10-16T02:17:49;99847.19;;;9.41;100.00
38812;BME280;24553;51.640;-0.752;2022-10-16T02:20:14;99848.59;;;9.37;100.00
38812;BME280;24553;51.640;-0.752;2022-10-16T02:22:45;99855.31;;;9.33;100.00
38812;BME280;24553;51.640;-0.752;2022-10-16T02:25:26;99864.47;;;9.37;100.00
38812;BME280;24553;51.640;-0.752;2022-10-16T02:28:13;99862.84;;;9.36;100.00
38812;BME280;24553;51.640;-0.752;2022-10-16T02:33:12;99877.09;;;9.35;100.00
38812;BME280;24553;51.640;-0.752;2022-10-16T02:35:40;99887.63;;;9.22;100.00
38812;BME280;24553;51.640;-0.752;2022-10-16T02:38:07;99892.47;;;9.18;100.00
38812;BME280;24553;51.640;-0.752;2022-10-16T02:40:33;99900.56;;;9.10;100.00
38812;BME280;24553;51.640;-0.752;2022-10-16T02:42:59;99902.34;;;9.03;100.00
38812;BME280;24553;51.640;-0.752;2022-10-16T02:45:25;99904.59;;;9.06;100.00
38812;BME280;24553;51.640;-0.752;2022-10-16T02:47:50;99899.41;;;9.19;100.00
38812;BME280;24553;51.640;-0.752;2022-10-16T02:50:16;99902.81;;;9.13;100.00
38812;BME280;24553;51.640;-0.752;2022-10-16T02:52:41;99908.03;;;9.00;100.00
38812;BME280;24553;51.640;-0.752;2022-10-16T02:55:07;99913.50;;;8.98;100.00
38812;BME280;24553;51.640;-0.752;2022-10-16T02:57:33;99912.06;;;8.95;100.00
38812;BME280;24553;51.640;-0.752;2022-10-16T02:59:58;99914.13;;;8.93;100.00
38812;BME280;24553;51.640;-0.752;2022-10-16T03:02:24;99916.72;;;8.87;100.00
38812;BME280;24553;51.640;-0.752;2022-10-16T03:04:49;99925.22;;;8.82;100.00
38812;BME280;24553;51.640;-0.752;2022-10-16T03:07:14;99924.59;;;8.80;100.00
38812;BME280;24553;51.640;-0.752;2022-10-16T03:09:40;99930.03;;;8.72;100.00
38812;BME280;24553;51.640;-0.752;2022-10-16T03:12:05;99933.19;;;8.61;100.00
38812;BME280;24553;51.640;-0.752;2022-10-16T03:14:31;99945.03;;;8.65;100.00
38812;BME280;24553;51.640;-0.752;2022-10-16T03:16:56;99942.56;;;8.63;100.00
38812;BME280;24553;51.640;-0.752;2022-10-16T03:19:22;99948.63;;;8.57;100.00
38812;BME280;24553;51.640;-0.752;2022-10-16T03:21:47;99945.91;;;8.50;100.00
38812;BME280;24553;51.640;-0.752;2022-10-16T03:24:12;99950.31;;;8.43;100.00
38812;BME280;24553;51.640;-0.752;2022-10-16T03:26:38;99955.59;;;8.43;100.00
38812;BME280;24553;51.640;-0.752;2022-10-16T03:29:03;99956.66;;;8.49;100.00
38812;BME280;24553;51.640;-0.752;2022-10-16T03:31:29;99955.22;;;8.46;100.00
38812;BME280;24553;51.640;-0.752;2022-10-16T03:33:55;99957.63;;;8.41;100.00
38812;BME280;24553;51.640;-0.752;2022-10-16T03:36:21;99957.06;;;8.31;100.00
38812;BME280;24553;51.640;-0.752;2022-10-16T03:38:46;99969.47;;;8.30;100.00
38812;BME280;24553;51.640;-0.752;2022-10-16T03:41:12;99974.97;;;8.29;100.00
38812;BME280;24553;51.640;-0.752;2022-10-16T03:43:37;99964.16;;;8.24;100.00
38812;BME280;24553;51.640;-0.752;2022-10-16T03:46:02;99976.25;;;8.18;100.00
38812;BME280;24553;51.640;-0.752;2022-10-16T03:48:28;99977.53;;;8.22;100.00
38812;BME280;24553;51.640;-0.752;2022-10-16T03:50:54;99982.97;;;8.21;100.00
38812;BME280;24553;51.640;-0.752;2022-10-16T03:53:20;99977.81;;;8.13;100.00
38812;BME280;24553;51.640;-0.752;2022-10-16T03:55:45;99988.34;;;8.06;100.00
38812;BME280;24553;51.640;-0.752;2022-10-16T03:58:11;99984.03;;;8.05;100.00
38812;BME280;24553;51.640;-0.752;2022-10-16T04:00:40;99996.06;;;8.07;100.00
38812;BME280;24553;51.640;-0.752;2022-10-16T04:03:06;100001.34;;;8.07;100.00
38812;BME280;24553;51.640;-0.752;2022-10-16T04:05:31;99992.81;;;8.05;100.00
38812;BME280;24553;51.640;-0.752;2022-10-16T04:07:57;100002.63;;;7.97;100.00
38812;BME280;24553;51.640;-0.752;2022-10-16T04:10:22;100013.13;;;7.90;100.00
38812;BME280;24553;51.640;-0.752;2022-10-16T04:12:47;100017.31;;;7.84;100.00
38812;BME280;24553;51.640;-0.752;2022-10-16T04:15:13;100022.59;;;7.84;100.00
38812;BME280;24553;51.640;-0.752;2022-10-16T04:17:38;100021.78;;;7.84;100.00
38812;BME280;24553;51.640;-0.752;2022-10-16T04:20:04;100032.53;;;7.82;100.00
38812;BME280;24553;51.640;-0.752;2022-10-16T04:22:29;100035.06;;;7.76;100.00
38812;BME280;24553;51.640;-0.752;2022-10-16T04:24:55;100040.47;;;7.68;100.00
38812;BME280;24553;51.640;-0.752;2022-10-16T04:27:20;100052.84;;;7.67;100.00
38812;BME280;24553;51.640;-0.752;2022-10-16T04:29:45;100056.81;;;7.48;100.00
38812;BME280;24553;51.640;-0.752;2022-10-16T04:32:11;100067.81;;;7.37;100.00
38812;BME280;24553;51.640;-0.752;2022-10-16T04:34:36;100065.06;;;7.30;100.00
38812;BME280;24553;51.640;-0.752;2022-10-16T04:37:04;100071.72;;;7.26;100.00
38812;BME280;24553;51.640;-0.752;2022-10-16T04:39:29;100078.53;;;7.20;100.00
38812;BME280;24553;51.640;-0.752;2022-10-16T04:41:54;100079.44;;;7.13;100.00
38812;BME280;24553;51.640;-0.752;2022-10-16T04:44:20;100083.56;;;7.07;100.00
38812;BME280;24553;51.640;-0.752;2022-10-16T04:46:45;100091.19;;;7.02;100.00
38812;BME280;24553;51.640;-0.752;2022-10-16T04:49:11;100089.72;;;6.99;100.00
38812;BME280;24553;51.640;-0.752;2022-10-16T04:51:36;100109.38;;;6.97;100.00
38812;BME280;24553;51.640;-0.752;2022-10-16T04:54:01;100105.72;;;6.98;100.00
38812;BME280;24553;51.640;-0.752;2022-10-16T04:56:27;100111.66;;;7.00;100.00
38812;BME280;24553;51.640;-0.752;2022-10-16T04:58:52;100125.19;;;6.97;100.00
38812;BME280;24553;51.640;-0.752;2022-10-16T05:01:17;100124.47;;;7.03;100.00
38812;BME280;24553;51.640;-0.752;2022-10-16T05:03:43;100136.28;;;7.07;100.00
38812;BME280;24553;51.640;-0.752;2022-10-16T05:06:08;100135.47;;;7.07;100.00
38812;BME280;24553;51.640;-0.752;2022-10-16T05:08:33;100148.66;;;7.07;100.00
38812;BME280;24553;51.640;-0.752;2022-10-16T05:10:59;100156.13;;;7.03;100.00
38812;BME280;24553;51.640;-0.752;2022-10-16T05:13:25;100161.91;;;6.98;100.00
38812;BME280;24553;51.640;-0.752;2022-10-16T05:15:50;100160.44;;;6.96;100.00
38812;BME280;24553;51.640;-0.752;2022-10-16T05:18:16;100171.41;;;6.85;100.00
38812;BME280;24553;51.640;-0.752;2022-10-16T05:20:41;100181.03;;;6.69;100.00
38812;BME280;24553;51.640;-0.752;2022-10-16T05:23:07;100176.31;;;6.57;100.00
38812;BME280;24553;51.640;-0.752;2022-10-16T05:25:32;100173.63;;;6.33;100.00
38812;BME280;24553;51.640;-0.752;2022-10-16T05:27:58;100179.28;;;6.14;100.00
38812;BME280;24553;51.640;-0.752;2022-10-16T05:30:23;100184.44;;;5.99;100.00
38812;BME280;24553;51.640;-0.752;2022-10-16T05:46:16;100206.16;;;5.44;100.00
38812;BME280;24553;51.640;-0.752;2022-10-16T05:48:41;100202.19;;;5.32;100.00
38812;BME280;24553;51.640;-0.752;2022-10-16T05:51:10;100204.34;;;5.20;100.00
38812;BME280;24553;51.640;-0.752;2022-10-16T05:53:37;100213.50;;;5.08;100.00
38812;BME280;24553;51.640;-0.752;2022-10-16T05:56:03;100209.72;;;5.02;100.00
38812;BME280;24553;51.640;-0.752;2022-10-16T05:58:32;100219.41;;;4.93;100.00
38812;BME280;24553;51.640;-0.752;2022-10-16T06:01:00;100225.47;;;4.94;100.00
38812;BME280;24553;51.640;-0.752;2022-10-16T06:03:26;100216.13;;;4.91;100.00
38812;BME280;24553;51.640;-0.752;2022-10-16T06:05:52;100224.78;;;4.84;100.00
38812;BME280;24553;51.640;-0.752;2022-10-16T06:08:19;100225.63;;;4.84;100.00
38812;BME280;24553;51.640;-0.752;2022-10-16T06:10:45;100236.78;;;4.86;100.00
38812;BME280;24553;51.640;-0.752;2022-10-16T06:13:11;100237.13;;;4.83;100.00
38812;BME280;24553;51.640;-0.752;2022-10-16T06:15:38;100244.16;;;4.82;100.00
38812;BME280;24553;51.640;-0.752;2022-10-16T06:18:04;100250.50;;;4.72;100.00
38812;BME280;24553;51.640;-0.752;2022-10-16T06:20:30;100250.25;;;4.49;100.00
38812;BME280;24553;51.640;-0.752;2022-10-16T06:22:55;100254.78;;;4.38;100.00
38812;BME280;24553;51.640;-0.752;2022-10-16T06:25:20;100254.09;;;4.28;100.00
38812;BME280;24553;51.640;-0.752;2022-10-16T06:27:46;100258.69;;;4.26;100.00
38812;BME280;24553;51.640;-0.752;2022-10-16T06:30:11;100255.38;;;4.24;100.00
38812;BME280;24553;51.640;-0.752;2022-10-16T06:32:36;100265.53;;;4.19;100.00
38812;BME280;24553;51.640;-0.752;2022-10-16T06:35:02;100264.41;;;4.22;100.00
38812;BME280;24553;51.640;-0.752;2022-10-16T06:37:27;100268.16;;;4.19;100.00
38812;BME280;24553;51.640;-0.752;2022-10-16T06:39:53;100267.34;;;4.19;100.00
38812;BME280;24553;51.640;-0.752;2022-10-16T06:42:18;100265.22;;;4.22;100.00
38812;BME280;24553;51.640;-0.752;2022-10-16T06:44:44;100275.84;;;4.21;100.00
38812;BME280;24553;51.640;-0.752;2022-10-16T06:47:09;100275.34;;;4.17;100.00
38812;BME280;24553;51.640;-0.752;2022-10-16T06:49:34;100278.28;;;4.14;100.00
38812;BME280;24553;51.640;-0.752;2022-10-16T06:52:00;100286.75;;;4.08;100.00
38812;BME280;24553;51.640;-0.752;2022-10-16T06:54:26;100291.50;;;4.04;100.00
38812;BME280;24553;51.640;-0.752;2022-10-16T06:56:52;100291.81;;;4.01;100.00
38812;BME280;24553;51.640;-0.752;2022-10-16T06:59:20;100298.69;;;4.02;100.00
38812;BME280;24553;51.640;-0.752;2022-10-16T07:01:45;100302.97;;;4.03;100.00
38812;BME280;24553;51.640;-0.752;2022-10-16T07:04:10;100305.28;;;4.06;100.00
38812;BME280;24553;51.640;-0.752;2022-10-16T07:06:36;100316.09;;;4.03;100.00
38812;BME280;24553;51.640;-0.752;2022-10-16T07:09:04;100324.47;;;4.07;100.00
38812;BME280;24553;51.640;-0.752;2022-10-16T07:11:29;100333.66;;;4.03;100.00
38812;BME280;24553;51.640;-0.752;2022-10-16T07:13:55;100332.16;;;4.00;100.00
38812;BME280;24553;51.640;-0.752;2022-10-16T07:16:22;100347.91;;;4.00;100.00
38812;BME280;24553;51.640;-0.752;2022-10-16T07:18:48;100351.78;;;3.96;100.00
38812;BME280;24553;51.640;-0.752;2022-10-16T07:21:19;100354.78;;;4.01;100.00
38812;BME280;24553;51.640;-0.752;2022-10-16T07:23:49;100351.16;;;4.02;100.00
38812;BME280;24553;51.640;-0.752;2022-10-16T07:26:15;100356.13;;;4.05;100.00
38812;BME280;24553;51.640;-0.752;2022-10-16T07:28:42;100359.78;;;4.12;100.00
38812;BME280;24553;51.640;-0.752;2022-10-16T07:31:10;100370.34;;;4.21;100.00
38812;BME280;24553;51.640;-0.752;2022-10-16T07:33:37;100368.94;;;4.26;100.00
38812;BME280;24553;51.640;-0.752;2022-10-16T07:36:04;100374.69;;;4.30;100.00
38812;BME280;24553;51.640;-0.752;2022-10-16T07:38:29;100372.56;;;4.33;100.00
38812;BME280;24553;51.640;-0.752;2022-10-16T07:40:59;100379.03;;;4.39;100.00
38812;BME280;24553;51.640;-0.752;2022-10-16T07:43:25;100380.94;;;4.55;100.00
38812;BME280;24553;51.640;-0.752;2022-10-16T07:45:51;100385.97;;;4.74;100.00
38812;BME280;24553;51.640;-0.752;2022-10-16T07:48:17;100397.41;;;4.91;100.00
38812;BME280;24553;51.640;-0.752;2022-10-16T07:50:43;100408.31;;;5.05;100.00
38812;BME280;24553;51.640;-0.752;2022-10-16T07:53:09;100404.75;;;5.14;100.00
38812;BME280;24553;51.640;-0.752;2022-10-16T07:55:34;100404.13;;;5.28;100.00
38812;BME280;24553;51.640;-0.752;2022-10-16T07:58:00;100412.91;;;5.45;100.00
38812;BME280;24553;51.640;-0.752;2022-10-16T08:00:25;100412.66;;;5.73;100.00
38812;BME280;24553;51.640;-0.752;2022-10-16T08:02:51;100419.66;;;6.06;100.00
38812;BME280;24553;51.640;-0.752;2022-10-16T08:05:16;100420.50;;;6.31;100.00
38812;BME280;24553;51.640;-0.752;2022-10-16T08:07:42;100425.59;;;6.49;100.00
38812;BME280;24553;51.640;-0.752;2022-10-16T08:10:16;100432.97;;;6.70;100.00
38812;BME280;24553;51.640;-0.752;2022-10-16T08:12:42;100433.94;;;6.86;100.00
38812;BME280;24553;51.640;-0.752;2022-10-16T08:15:07;100434.56;;;6.96;100.00
38812;BME280;24553;51.640;-0.752;2022-10-16T08:17:33;100438.81;;;7.13;100.00
38812;BME280;24553;51.640;-0.752;2022-10-16T08:19:58;100436.09;;;7.38;100.00
38812;BME280;24553;51.640;-0.752;2022-10-16T08:22:24;100445.72;;;7.62;100.00
38812;BME280;24553;51.640;-0.752;2022-10-16T08:24:49;100444.47;;;7.81;100.00
38812;BME280;24553;51.640;-0.752;2022-10-16T08:27:14;100456.22;;;8.01;100.00
38812;BME280;24553;51.640;-0.752;2022-10-16T08:29:40;100460.34;;;8.27;100.00
38812;BME280;24553;51.640;-0.752;2022-10-16T08:32:05;100460.38;;;8.50;100.00
38812;BME280;24553;51.640;-0.752;2022-10-16T08:34:30;100466.16;;;8.68;100.00
38812;BME280;24553;51.640;-0.752;2022-10-16T08:36:56;100464.53;;;8.82;100.00
38812;BME280;24553;51.640;-0.752;2022-10-16T08:39:21;100458.63;;;8.95;100.00
38812;BME280;24553;51.640;-0.752;2022-10-16T08:45:05;100458.72;;;9.31;100.00
38812;BME280;24553;51.640;-0.752;2022-10-16T08:47:47;100462.19;;;9.47;100.00
38812;BME280;24553;51.640;-0.752;2022-10-16T08:50:23;100459.97;;;9.65;100.00
38812;BME280;24553;51.640;-0.752;2022-10-16T08:52:49;100464.97;;;9.75;100.00
38812;BME280;24553;51.640;-0.752;2022-10-16T08:55:31;100462.34;;;9.96;100.00
38812;BME280;24553;51.640;-0.752;2022-10-16T08:57:59;100452.78;;;10.17;100.00
38812;BME280;24553;51.640;-0.752;2022-10-16T09:00:26;100457.44;;;10.30;100.00
38812;BME280;24553;51.640;-0.752;2022-10-16T09:03:11;100461.09;;;10.50;100.00
38812;BME280;24553;51.640;-0.752;2022-10-16T09:08:42;100465.59;;;10.78;100.00
38812;BME280;24553;51.640;-0.752;2022-10-16T09:14:07;100447.34;;;10.96;100.00
38812;BME280;24553;51.640;-0.752;2022-10-16T09:16:46;100456.22;;;11.10;100.00
38812;BME280;24553;51.640;-0.752;2022-10-16T09:19:30;100468.94;;;11.21;100.00
38812;BME280;24553;51.640;-0.752;2022-10-16T09:22:02;100473.69;;;11.26;100.00
38812;BME280;24553;51.640;-0.752;2022-10-16T09:24:36;100478.44;;;11.37;100.00
38812;BME280;24553;51.640;-0.752;2022-10-16T09:27:02;100472.56;;;11.48;100.00
38812;BME280;24553;51.640;-0.752;2022-10-16T09:29:27;100473.41;;;11.55;100.00
38812;BME280;24553;51.640;-0.752;2022-10-16T09:31:54;100473.69;;;11.67;100.00
38812;BME280;24553;51.640;-0.752;2022-10-16T09:34:53;100475.94;;;11.77;100.00
38812;BME280;24553;51.640;-0.752;2022-10-16T09:37:22;100470.47;;;11.85;100.00
38812;BME280;24553;51.640;-0.752;2022-10-16T09:39:52;100472.75;;;11.95;100.00
38812;BME280;24553;51.640;-0.752;2022-10-16T09:42:25;100459.09;;;12.05;100.00
38812;BME280;24553;51.640;-0.752;2022-10-16T09:44:52;100465.88;;;12.14;100.00
38812;BME280;24553;51.640;-0.752;2022-10-16T09:47:21;100473.84;;;12.20;100.00
38812;BME280;24553;51.640;-0.752;2022-10-16T09:49:53;100471.22;;;12.27;100.00
38812;BME280;24553;51.640;-0.752;2022-10-16T09:52:19;100468.97;;;12.37;100.00
38812;BME280;24553;51.640;-0.752;2022-10-16T09:54:51;100464.28;;;12.53;100.00
38812;BME280;24553;51.640;-0.752;2022-10-16T09:57:17;100468.19;;;12.63;100.00
38812;BME280;24553;51.640;-0.752;2022-10-16T09:59:50;100468.97;;;12.77;100.00
38812;BME280;24553;51.640;-0.752;2022-10-16T10:02:19;100473.28;;;12.92;100.00
38812;BME280;24553;51.640;-0.752;2022-10-16T10:04:50;100470.78;;;13.03;100.00
38812;BME280;24553;51.640;-0.752;2022-10-16T10:07:42;100465.28;;;13.12;100.00
38812;BME280;24553;51.640;-0.752;2022-10-16T10:10:25;100472.41;;;13.24;100.00
38812;BME280;24553;51.640;-0.752;2022-10-16T10:12:52;100465.84;;;13.34;100.00
38812;BME280;24553;51.640;-0.752;2022-10-16T10:15:18;100466.47;;;13.36;100.00
38812;BME280;24553;51.640;-0.752;2022-10-16T10:17:51;100462.13;;;13.48;100.00
38812;BME280;24553;51.640;-0.752;2022-10-16T10:20:29;100453.28;;;13.54;100.00
38812;BME280;24553;51.640;-0.752;2022-10-16T10:22:56;100461.66;;;13.64;100.00
38812;BME280;24553;51.640;-0.752;2022-10-16T10:39:02;100450.22;;;14.27;100.00
38812;BME280;24553;51.640;-0.752;2022-10-16T10:46:50;100438.59;;;14.53;100.00
38812;BME280;24553;51.640;-0.752;2022-10-16T10:52:02;100447.81;;;14.76;100.00
38812;BME280;24553;51.640;-0.752;2022-10-16T10:57:36;100440.13;;;14.86;100.00
38812;BME280;24553;51.640;-0.752;2022-10-16T11:08:39;100440.28;;;15.10;100.00
38812;BME280;24553;51.640;-0.752;2022-10-16T11:11:17;100425.75;;;15.05;100.00
38812;BME280;24553;51.640;-0.752;2022-10-16T11:13:52;100427.84;;;15.03;100.00
38812;BME280;24553;51.640;-0.752;2022-10-16T11:16:33;100433.31;;;15.27;100.00
38812;BME280;24553;51.640;-0.752;2022-10-16T11:21:50;100421.88;;;15.57;100.00
38812;BME280;24553;51.640;-0.752;2022-10-16T11:24:23;100421.44;;;15.60;100.00
38812;BME280;24553;51.640;-0.752;2022-10-16T11:26:56;100420.03;;;15.76;100.00
38812;BME280;24553;51.640;-0.752;2022-10-16T11:29:27;100413.41;;;15.78;100.00
38812;BME280;24553;51.640;-0.752;2022-10-16T11:31:58;100409.34;;;15.87;100.00
38812;BME280;24553;51.640;-0.752;2022-10-16T11:34:48;100420.69;;;16.01;100.00
38812;BME280;24553;51.640;-0.752;2022-10-16T11:39:45;100406.03;;;16.04;100.00
38812;BME280;24553;51.640;-0.752;2022-10-16T11:42:18;100413.00;;;16.05;100.00
38812;BME280;24553;51.640;-0.752;2022-10-16T11:49:47;100415.16;;;15.84;100.00
38812;BME280;24553;51.640;-0.752;2022-10-16T11:52:29;100426.44;;;15.86;100.00
38812;BME280;24553;51.640;-0.752;2022-10-16T11:57:33;100418.88;;;16.25;100.00
38812;BME280;24553;51.640;-0.752;2022-10-16T12:05:45;100418.81;;;16.02;100.00
38812;BME280;24553;51.640;-0.752;2022-10-16T12:08:16;100415.13;;;15.73;100.00
38812;BME280;24553;51.640;-0.752;2022-10-16T12:10:44;100425.59;;;15.56;100.00
38812;BME280;24553;51.640;-0.752;2022-10-16T12:13:31;100413.81;;;15.45;100.00
38812;BME280;24553;51.640;-0.752;2022-10-16T12:16:23;100423.97;;;15.55;100.00
38812;BME280;24553;51.640;-0.752;2022-10-16T12:18:49;100417.25;;;15.64;100.00
38812;BME280;24553;51.640;-0.752;2022-10-16T12:21:16;100416.44;;;15.82;100.00
38812;BME280;24553;51.640;-0.752;2022-10-16T12:23:52;100410.22;;;16.00;100.00
38812;BME280;24553;51.640;-0.752;2022-10-16T12:26:29;100416.63;;;16.10;100.00
38812;BME280;24553;51.640;-0.752;2022-10-16T12:28:55;100407.47;;;16.18;100.00
38812;BME280;24553;51.640;-0.752;2022-10-16T12:31:45;100409.22;;;16.24;100.00
38812;BME280;24553;51.640;-0.752;2022-10-16T12:34:22;100400.41;;;16.24;100.00
38812;BME280;24553;51.640;-0.752;2022-10-16T12:36:53;100402.22;;;16.23;100.00
38812;BME280;24553;51.640;-0.752;2022-10-16T12:39:24;100402.69;;;16.20;100.00
38812;BME280;24553;51.640;-0.752;2022-10-16T12:42:04;100408.22;;;16.37;100.00
38812;BME280;24553;51.640;-0.752;2022-10-16T12:44:34;100400.53;;;16.64;100.00
38812;BME280;24553;51.640;-0.752;2022-10-16T12:47:01;100402.78;;;16.79;100.00
38812;BME280;24553;51.640;-0.752;2022-10-16T12:49:34;100399.72;;;16.87;100.00
38812;BME280;24553;51.640;-0.752;2022-10-16T12:52:00;100389.81;;;16.99;100.00
38812;BME280;24553;51.640;-0.752;2022-10-16T12:54:31;100402.41;;;16.99;100.00
38812;BME280;24553;51.640;-0.752;2022-10-16T12:57:30;100394.72;;;16.91;100.00
38812;BME280;24553;51.640;-0.752;2022-10-16T13:00:13;100399.72;;;16.75;100.00
38812;BME280;24553;51.640;-0.752;2022-10-16T13:13:50;100398.53;;;16.36;100.00
38812;BME280;24553;51.640;-0.752;2022-10-16T13:19:10;100409.81;;;16.26;100.00
38812;BME280;24553;51.640;-0.752;2022-10-16T13:30:18;100410.28;;;15.81;100.00
38812;BME280;24553;51.640;-0.752;2022-10-16T13:32:50;100408.56;;;15.68;100.00
38812;BME280;24553;51.640;-0.752;2022-10-16T13:35:25;100419.78;;;15.59;100.00
38812;BME280;24553;51.640;-0.752;2022-10-16T13:37:50;100414.41;;;15.47;100.00
38812;BME280;24553;51.640;-0.752;2022-10-16T13:40:23;100413.44;;;15.41;100.00
38812;BME280;24553;51.640;-0.752;2022-10-16T13:42:50;100409.44;;;15.32;100.00
38812;BME280;24553;51.640;-0.752;2022-10-16T13:45:21;100399.09;;;15.36;100.00
38812;BME280;24553;51.640;-0.752;2022-10-16T13:47:47;100406.13;;;15.48;100.00
38812;BME280;24553;51.640;-0.752;2022-10-16T13:50:15;100403.75;;;15.59;100.00
38812;BME280;24553;51.640;-0.752;2022-10-16T13:52:42;100390.69;;;15.69;100.00
38812;BME280;24553;51.640;-0.752;2022-10-16T13:55:15;100395.16;;;15.75;100.00
38812;BME280;24553;51.640;-0.752;2022-10-16T13:57:42;100394.81;;;15.83;100.00
38812;BME280;24553;51.640;-0.752;2022-10-16T14:00:25;100392.53;;;15.99;100.00
38812;BME280;24553;51.640;-0.752;2022-10-16T14:03:02;100392.00;;;16.08;100.00
38812;BME280;24553;51.640;-0.752;2022-10-16T14:05:28;100386.66;;;16.20;100.00
38812;BME280;24553;51.640;-0.752;2022-10-16T14:07:54;100379.69;;;16.19;100.00
38812;BME280;24553;51.640;-0.752;2022-10-16T14:10:27;100372.00;;;16.11;100.00
38812;BME280;24553;51.640;-0.752;2022-10-16T14:13:03;100375.56;;;16.05;100.00
38812;BME280;24553;51.640;-0.752;2022-10-16T14:15:35;100368.94;;;16.07;100.00
38812;BME280;24553;51.640;-0.752;2022-10-16T14:18:01;100369.44;;;16.16;100.00
38812;BME280;24553;51.640;-0.752;2022-10-16T14:20:29;100364.34;;;16.26;100.00
38812;BME280;24553;51.640;-0.752;2022-10-16T14:25:28;100364.91;;;16.28;100.00
38812;BME280;24553;51.640;-0.752;2022-10-16T14:30:27;100377.34;;;16.11;100.00
38812;BME280;24553;51.640;-0.752;2022-10-16T14:33:18;100385.19;;;15.94;100.00
38812;BME280;24553;51.640;-0.752;2022-10-16T14:35:45;100384.47;;;15.75;100.00
38812;BME280;24553;51.640;-0.752;2022-10-16T14:38:18;100381.03;;;15.68;100.00
38812;BME280;24553;51.640;-0.752;2022-10-16T14:40:47;100386.69;;;15.60;100.00
38812;BME280;24553;51.640;-0.752;2022-10-16T14:43:22;100384.09;;;15.53;100.00
38812;BME280;24553;51.640;-0.752;2022-10-16T14:45:53;100391.16;;;15.47;100.00
38812;BME280;24553;51.640;-0.752;2022-10-16T14:48:19;100388.50;;;15.47;100.00
38812;BME280;24553;51.640;-0.752;2022-10-16T14:50:46;100385.38;;;15.51;100.00